< < Back
Terminal Aerodrome Forecast


Current Version              Previous Versions:   1  2  3  4  5  6  7  8  9  

Terminal Aerodrome Forecast

347
FTUS42 KMLB 221100
TAFDAB
TAF
KDAB 221125Z 2212/2312 00000KT P6SM BKN250
     FM221500 12004KT P6SM SCT025 BKN250
     FM221800 10007KT P6SM VCTS SCT035CB SCT100 BKN250
      TEMPO 2218/2221 3SM TSRA BKN025CB
     FM230100 15002KT P6SM SCT050 BKN150=

Latest METAR

635
SAUS80 KWBC 221800 CCA
MTRDAB
METAR KDAB 221753Z VRB05KT 10SM SCT030CB BKN055 BKN070 28/23 A3001 RMK
AO2 SLP161 OCNL LTGCG DSNT S W VCSH S-W CB OHD-S-W MOV E
T02780228 10300 20228 56018


USA.gov is the U.S. government's official web portal to all federal, state and local government web resources and services.